createdAt,value
2024-03-11T00:00:58.738Z,8.85
2024-03-11T00:04:00.394Z,8.79
2024-03-11T00:07:04.705Z,8.79
2024-03-11T00:10:12.772Z,8.71
2024-03-11T00:13:17.436Z,8.71
2024-03-11T00:16:19.012Z,8.71
2024-03-11T00:19:20.454Z,8.77
2024-03-11T00:22:22.151Z,8.76
2024-03-11T00:25:23.723Z,8.76
2024-03-11T00:28:25.179Z,8.70
2024-03-11T00:31:30.573Z,8.70
2024-03-11T00:34:33.766Z,8.66
2024-03-11T00:37:35.950Z,8.65
2024-03-11T00:40:38.042Z,8.66
2024-03-11T00:43:39.498Z,8.78
2024-03-11T00:46:41.297Z,8.74
2024-03-11T00:49:42.975Z,8.73
2024-03-11T00:52:45.926Z,8.67
2024-03-11T00:55:47.615Z,8.67
2024-03-11T00:58:49.364Z,8.67
2024-03-11T01:01:51.484Z,8.71
2024-03-11T01:04:53.699Z,8.73
2024-03-11T01:07:55.133Z,8.81
2024-03-11T01:10:59.851Z,8.78
2024-03-11T01:14:01.391Z,8.77
2024-03-11T01:17:03.374Z,8.76
2024-03-11T01:20:07.996Z,8.76
2024-03-11T01:23:09.669Z,8.81
2024-03-11T01:26:11.184Z,8.79
2024-03-11T01:29:13.278Z,8.77
2024-03-11T01:32:14.756Z,8.78
2024-03-11T01:35:16.452Z,8.88
2024-03-11T01:38:19.281Z,8.87
2024-03-11T01:41:20.829Z,8.90
2024-03-11T01:44:23.025Z,8.81
2024-03-11T01:47:26.352Z,8.72
2024-03-11T01:50:28.010Z,8.75
2024-03-11T01:53:29.874Z,8.78
2024-03-11T01:56:32.760Z,8.79
2024-03-11T01:59:39.068Z,8.79
2024-03-11T02:02:41.075Z,8.77
2024-03-11T02:05:44.317Z,8.78
2024-03-11T02:08:45.894Z,8.76
2024-03-11T02:11:48.321Z,8.86
2024-03-11T02:14:50.050Z,8.83
2024-03-11T02:17:51.610Z,8.80
2024-03-11T02:20:53.186Z,8.76
2024-03-11T02:23:54.695Z,8.73
2024-03-11T02:26:56.174Z,8.67
2024-03-11T02:29:57.629Z,8.71
2024-03-11T02:32:59.880Z,8.74
2024-03-11T02:36:02.392Z,8.69
2024-03-11T02:39:06.352Z,8.66
2024-03-11T02:42:07.880Z,8.70
2024-03-11T02:45:12.830Z,8.74
2024-03-11T02:48:14.410Z,8.72
2024-03-11T02:51:15.924Z,8.71
2024-03-11T02:54:17.791Z,8.78
2024-03-11T02:57:19.238Z,8.78
2024-03-11T03:00:21.330Z,8.75
2024-03-11T03:03:22.881Z,8.79
2024-03-11T03:06:24.351Z,8.81
2024-03-11T03:09:25.893Z,8.80
2024-03-11T03:12:30.551Z,8.77
2024-03-11T03:15:32.212Z,8.77
2024-03-11T03:18:35.303Z,8.74
2024-03-11T03:21:37.085Z,8.78
2024-03-11T03:24:38.493Z,8.81
2024-03-11T03:27:40.117Z,8.84
2024-03-11T03:30:41.586Z,8.85
2024-03-11T03:33:43.036Z,8.81
2024-03-11T03:36:44.533Z,8.77
2024-03-11T03:39:46.011Z,8.77
2024-03-11T03:42:48.588Z,8.75
2024-03-11T03:45:50.077Z,8.76
2024-03-11T03:48:52.604Z,8.74
2024-03-11T03:51:54.021Z,8.69
2024-03-11T03:54:55.709Z,8.71
2024-03-11T03:57:57.162Z,8.69
2024-03-11T04:01:00.714Z,8.75
2024-03-11T04:04:02.211Z,8.72
2024-03-11T04:07:04.311Z,8.75
2024-03-11T04:10:06.528Z,8.77
2024-03-11T04:13:08.106Z,8.67
2024-03-11T04:16:12.990Z,8.74
2024-03-11T04:19:14.738Z,8.72
2024-03-11T04:22:16.238Z,8.70
2024-03-11T04:25:26.623Z,8.66
2024-03-11T04:28:29.726Z,8.68
2024-03-11T04:31:34.072Z,8.74
2024-03-11T04:34:39.896Z,8.66
2024-03-11T04:37:41.360Z,8.61
2024-03-11T04:40:48.458Z,8.60
2024-03-11T04:43:50.281Z,8.54
2024-03-11T04:46:51.892Z,8.51
2024-03-11T04:49:53.333Z,8.49
2024-03-11T04:52:56.421Z,8.48
2024-03-11T04:55:58.057Z,8.43
2024-03-11T04:59:00.780Z,8.40
2024-03-11T05:02:02.694Z,8.36
2024-03-11T05:05:04.519Z,8.33
2024-03-11T05:08:07.115Z,8.28
2024-03-11T05:11:09.116Z,8.28
2024-03-11T05:14:10.636Z,8.25
2024-03-11T05:17:14.068Z,8.21
2024-03-11T05:20:16.311Z,8.13
2024-03-11T05:23:18.443Z,8.12
2024-03-11T05:26:19.929Z,8.08
2024-03-11T05:29:21.481Z,8.00
2024-03-11T05:32:22.935Z,8.00
2024-03-11T05:35:25.917Z,7.95
2024-03-11T05:38:27.800Z,7.92
2024-03-11T05:41:29.640Z,7.97
2024-03-11T05:44:31.134Z,7.93
2024-03-11T05:47:32.639Z,7.94
2024-03-11T05:50:34.282Z,8.05
2024-03-11T05:53:38.349Z,8.10
2024-03-11T05:56:39.877Z,8.18
2024-03-11T05:59:41.425Z,8.21
2024-03-11T06:02:43.604Z,8.10
2024-03-11T06:05:45.577Z,8.02
2024-03-11T06:08:47.681Z,8.04
2024-03-11T06:11:50.246Z,8.03
2024-03-11T06:14:52.531Z,7.97
2024-03-11T06:17:54.457Z,7.92
2024-03-11T06:20:56.141Z,7.96
2024-03-11T06:24:00.255Z,7.93
2024-03-11T06:27:01.726Z,7.87
2024-03-11T06:30:04.182Z,7.92
2024-03-11T06:33:10.666Z,7.95
2024-03-11T06:36:15.232Z,8.04
2024-03-11T06:39:17.880Z,8.05
2024-03-11T06:42:19.369Z,8.11
2024-03-11T06:45:21.326Z,8.26
2024-03-11T06:48:23.888Z,8.21
2024-03-11T06:51:25.720Z,8.19
2024-03-11T06:54:27.254Z,8.28
2024-03-11T06:57:28.705Z,8.33
2024-03-11T07:00:30.205Z,8.40
2024-03-11T07:03:31.758Z,8.44
2024-03-11T07:06:33.201Z,8.42
2024-03-11T07:09:35.261Z,8.60
2024-03-11T07:12:36.848Z,8.65
2024-03-11T07:15:38.330Z,8.60
2024-03-11T07:18:43.187Z,8.61
2024-03-11T07:21:46.501Z,8.66
2024-03-11T07:24:48.009Z,8.82
2024-03-11T07:27:49.848Z,8.98
2024-03-11T07:30:52.426Z,9.12
2024-03-11T07:33:53.987Z,9.14
2024-03-11T07:36:57.175Z,9.14
2024-03-11T07:39:58.759Z,9.21
2024-03-11T07:43:00.632Z,9.19
2024-03-11T07:46:04.884Z,9.33
2024-03-11T07:49:12.467Z,9.45
2024-03-11T07:52:14.322Z,9.57
2024-03-11T07:55:15.839Z,9.67
2024-03-11T07:58:17.449Z,9.83
2024-03-11T08:01:22.464Z,9.92
2024-03-11T08:04:25.509Z,9.96
2024-03-11T08:07:26.999Z,10.15
2024-03-11T08:10:28.946Z,10.16
2024-03-11T08:13:32.208Z,10.18
2024-03-11T08:16:35.011Z,10.32
2024-03-11T08:19:36.555Z,10.55
2024-03-11T08:22:48.638Z,10.56
2024-03-11T08:25:52.544Z,10.72
2024-03-11T08:28:54.139Z,10.78
2024-03-11T08:31:55.644Z,10.80
2024-03-11T08:34:57.995Z,10.85
2024-03-11T08:37:59.912Z,10.85
2024-03-11T08:41:02.021Z,10.78
2024-03-11T08:44:03.616Z,10.91
2024-03-11T08:47:10.240Z,10.82
2024-03-11T08:50:18.076Z,10.81
2024-03-11T08:53:20.304Z,11.10
2024-03-11T08:56:22.713Z,11.26
2024-03-11T08:59:24.361Z,11.35
2024-03-11T09:02:28.787Z,11.57
2024-03-11T09:05:30.387Z,11.73
2024-03-11T09:08:31.866Z,11.87
2024-03-11T09:11:33.588Z,11.94
2024-03-11T09:14:35.243Z,11.96
2024-03-11T09:17:36.725Z,11.93
2024-03-11T09:20:38.190Z,11.92
2024-03-11T09:23:39.638Z,12.05
2024-03-11T09:26:41.173Z,12.18
2024-03-11T09:29:42.717Z,12.17
2024-03-11T09:32:45.834Z,12.24
2024-03-11T09:35:48.672Z,12.40
2024-03-11T09:38:50.159Z,12.29
2024-03-11T09:41:55.302Z,12.00
2024-03-11T09:44:57.529Z,12.02
2024-03-11T09:48:01.049Z,11.90
2024-03-11T09:51:03.944Z,11.85
2024-03-11T09:54:06.629Z,11.79
2024-03-11T09:57:08.261Z,11.84
2024-03-11T10:00:14.125Z,11.90
2024-03-11T10:03:26.092Z,11.86
2024-03-11T10:06:28.401Z,11.85
2024-03-11T10:09:32.846Z,11.90
2024-03-11T10:12:35.563Z,11.94
2024-03-11T10:15:37.243Z,12.03
2024-03-11T10:18:38.816Z,11.96
2024-03-11T10:21:41.706Z,11.96
2024-03-11T10:24:45.979Z,11.71
2024-03-11T10:27:48.827Z,11.77
2024-03-11T10:30:51.303Z,11.74
2024-03-11T10:33:55.140Z,12.06
2024-03-11T10:36:58.816Z,12.23
2024-03-11T10:40:05.283Z,12.64
2024-03-11T10:43:23.961Z,13.06
2024-03-11T10:46:25.390Z,13.42
2024-03-11T10:49:28.517Z,13.53
2024-03-11T10:52:34.494Z,13.57
2024-03-11T10:55:39.808Z,13.84
2024-03-11T10:58:43.723Z,13.93
2024-03-11T11:01:55.384Z,13.91
2024-03-11T11:04:59.085Z,13.51
2024-03-11T11:08:03.570Z,13.79
2024-03-11T11:11:06.647Z,13.62
2024-03-11T11:14:12.480Z,13.71
2024-03-11T11:17:18.313Z,13.54
2024-03-11T11:20:32.315Z,13.90
2024-03-11T11:23:36.695Z,14.18
2024-03-11T11:26:42.417Z,14.14
2024-03-11T11:29:44.196Z,14.12
2024-03-11T11:32:45.875Z,14.28
2024-03-11T11:35:47.391Z,14.30
2024-03-11T11:38:50.005Z,14.38
2024-03-11T11:41:54.747Z,14.54
2024-03-11T11:44:58.217Z,14.82
2024-03-11T11:48:14.099Z,14.78
2024-03-11T11:51:15.597Z,14.60
2024-03-11T11:54:35.796Z,14.20
2024-03-11T11:57:40.233Z,14.01
2024-03-11T12:00:45.400Z,13.93
2024-03-11T12:03:47.768Z,13.80
2024-03-11T12:06:51.016Z,13.73
2024-03-11T12:09:57.371Z,13.63
2024-03-11T12:12:59.404Z,13.83
2024-03-11T12:16:21.706Z,13.64
2024-03-11T12:19:23.242Z,13.78
2024-03-11T12:22:26.667Z,14.10
2024-03-11T12:25:29.718Z,14.56
2024-03-11T12:28:31.289Z,14.92
2024-03-11T12:31:37.289Z,14.95
2024-03-11T12:34:40.012Z,14.72
2024-03-11T12:37:43.865Z,14.60
2024-03-11T12:40:45.924Z,14.26
2024-03-11T12:43:47.708Z,14.11
2024-03-11T12:46:57.149Z,14.08
2024-03-11T12:49:59.757Z,13.99
2024-03-11T12:53:03.412Z,13.88
2024-03-11T12:56:08.436Z,13.81
2024-03-11T12:59:16.020Z,13.89
2024-03-11T13:02:21.827Z,13.69
2024-03-11T13:05:24.200Z,13.95
2024-03-11T13:08:26.062Z,14.38
2024-03-11T13:11:28.714Z,14.36
2024-03-11T13:14:31.172Z,14.06
2024-03-11T13:17:33.646Z,14.07
2024-03-11T13:20:38.904Z,14.43
2024-03-11T13:23:44.226Z,14.41
2024-03-11T13:26:49.563Z,14.79
2024-03-11T13:29:51.054Z,15.13
2024-03-11T13:32:52.556Z,15.50
2024-03-11T13:35:54.771Z,15.82
2024-03-11T13:38:56.245Z,15.75
2024-03-11T13:42:02.044Z,15.71
2024-03-11T14:45:33.566Z,16.79
2024-03-11T14:48:36.750Z,16.40
2024-03-11T14:51:42.640Z,15.84
2024-03-11T14:54:44.219Z,15.67
2024-03-11T14:57:46.978Z,15.42
2024-03-11T15:00:50.787Z,15.98
2024-03-11T15:03:52.716Z,15.91
2024-03-11T15:06:54.436Z,15.57
2024-03-11T15:10:00.055Z,16.25
2024-03-11T15:13:02.733Z,16.40
2024-03-11T15:16:04.899Z,16.53
2024-03-11T15:19:06.406Z,16.41
2024-03-11T15:22:07.914Z,16.00
2024-03-11T15:25:10.234Z,15.54
2024-03-11T15:28:13.576Z,15.32
2024-03-11T15:31:15.010Z,15.14
2024-03-11T15:34:16.771Z,15.09
2024-03-11T15:37:20.148Z,15.13
2024-03-11T15:40:22.393Z,15.05
2024-03-11T15:43:26.041Z,15.02
2024-03-11T15:46:29.339Z,14.85
2024-03-11T15:49:34.128Z,14.76
2024-03-11T15:52:35.757Z,14.79
2024-03-11T15:55:37.272Z,14.75
2024-03-11T15:58:38.746Z,14.75
2024-03-11T16:01:41.740Z,14.88
2024-03-11T16:04:43.374Z,14.93
2024-03-11T16:07:48.981Z,15.07
2024-03-11T16:10:50.507Z,14.96
2024-03-11T16:13:54.288Z,15.04
2024-03-11T16:16:56.482Z,15.15
2024-03-11T16:19:58.581Z,15.11
2024-03-11T16:23:06.775Z,14.89
2024-03-11T16:26:08.388Z,14.86
2024-03-11T16:29:15.653Z,14.72
2024-03-11T16:32:18.420Z,14.70
2024-03-11T16:35:35.563Z,14.73
2024-03-11T16:38:37.097Z,14.62
2024-03-11T16:41:41.496Z,14.54
2024-03-11T16:44:45.403Z,14.40
2024-03-11T16:47:49.990Z,14.37
2024-03-11T16:50:54.140Z,14.35
2024-03-11T16:53:55.621Z,14.29
2024-03-11T16:56:57.037Z,14.18
2024-03-11T16:59:59.744Z,14.14
2024-03-11T17:03:02.390Z,14.04
2024-03-11T17:06:03.968Z,14.02
2024-03-11T17:09:05.611Z,13.99
2024-03-11T17:12:10.720Z,14.03
2024-03-11T17:15:15.258Z,14.00
2024-03-11T17:18:21.291Z,14.02
2024-03-11T17:21:23.061Z,13.95
2024-03-11T17:24:33.441Z,13.94
2024-03-11T17:27:35.624Z,13.85
2024-03-11T17:30:40.884Z,13.81
2024-03-11T17:33:42.449Z,13.75
2024-03-11T17:36:43.939Z,13.73
2024-03-11T17:39:45.468Z,13.66
2024-03-11T17:42:49.552Z,13.69
2024-03-11T17:45:51.411Z,13.65
2024-03-11T17:48:53.029Z,13.60
2024-03-11T17:51:56.392Z,13.48
2024-03-11T17:54:58.614Z,13.41
2024-03-11T17:58:01.135Z,13.35
2024-03-11T18:01:03.213Z,13.28
2024-03-11T18:04:06.324Z,13.24
2024-03-11T18:07:07.993Z,13.12
2024-03-11T18:10:09.828Z,13.03
2024-03-11T18:13:17.765Z,12.94
2024-03-11T18:16:19.335Z,12.93
2024-03-11T18:19:25.432Z,12.94
2024-03-11T18:22:28.389Z,12.95
2024-03-11T18:25:36.477Z,12.92
2024-03-11T18:28:37.988Z,12.91
2024-03-11T18:31:39.532Z,12.81
2024-03-11T18:34:41.030Z,12.76
2024-03-11T18:37:43.005Z,12.67
2024-03-11T18:40:44.691Z,12.54
2024-03-11T18:43:46.132Z,12.47
2024-03-11T18:46:48.205Z,12.46
2024-03-11T18:49:50.850Z,12.41
2024-03-11T18:52:59.703Z,12.38
2024-03-11T18:56:02.852Z,12.34
2024-03-11T18:59:06.962Z,12.26
2024-03-11T19:02:08.826Z,12.15
2024-03-11T19:05:10.283Z,11.86
2024-03-11T19:08:12.297Z,11.63
2024-03-11T19:11:13.793Z,11.42
2024-03-11T19:14:16.284Z,11.44
2024-03-11T19:17:19.802Z,11.44
2024-03-11T19:20:23.155Z,11.42
2024-03-11T19:23:25.023Z,11.44
2024-03-11T19:26:26.518Z,11.35
2024-03-11T19:29:28.200Z,11.27
2024-03-11T19:32:29.857Z,11.23
2024-03-11T19:35:31.609Z,10.98
2024-03-11T19:39:01.083Z,10.97
2024-03-11T19:42:25.434Z,11.02
2024-03-11T19:45:42.424Z,10.99
2024-03-11T19:49:24.794Z,10.90
2024-03-11T19:53:10.011Z,10.84
2024-03-11T19:56:33.087Z,10.69
2024-03-11T20:00:29.525Z,10.61
2024-03-11T20:03:59.361Z,10.60
2024-03-11T20:07:22.274Z,10.45
2024-03-11T20:11:07.343Z,10.40
2024-03-11T20:14:47.153Z,10.37
2024-03-11T20:18:11.004Z,10.31
2024-03-11T20:21:53.891Z,10.23
2024-03-11T20:25:33.322Z,10.23
2024-03-11T20:29:01.901Z,10.14
2024-03-11T20:32:12.273Z,10.10
2024-03-11T20:35:13.796Z,10.08
2024-03-11T20:38:15.370Z,10.05
2024-03-11T20:41:17.310Z,10.03
2024-03-11T20:44:18.776Z,10.02
2024-03-11T20:47:20.308Z,9.94
2024-03-11T20:50:21.855Z,9.91
2024-03-11T20:53:24.334Z,9.88
2024-03-11T20:56:26.088Z,9.83
2024-03-11T20:59:27.593Z,9.79
2024-03-11T21:02:29.156Z,9.76
2024-03-11T21:05:30.632Z,9.72
2024-03-11T21:08:34.960Z,9.68
2024-03-11T21:11:37.433Z,9.61
2024-03-11T21:14:38.902Z,9.54
2024-03-11T21:17:42.545Z,9.50
2024-03-11T21:20:56.802Z,9.34
2024-03-11T21:24:08.374Z,9.22
2024-03-11T21:27:39.437Z,9.21
2024-03-11T21:30:42.832Z,9.09
2024-03-11T21:33:45.169Z,9.07
2024-03-11T21:36:46.741Z,9.06
2024-03-11T21:39:53.781Z,8.99
2024-03-11T21:42:55.757Z,8.99
2024-03-11T21:45:57.579Z,9.01
2024-03-11T21:48:59.094Z,9.01
2024-03-11T21:52:00.760Z,8.99
2024-03-11T21:55:03.059Z,8.99
2024-03-11T21:58:05.019Z,8.96
2024-03-11T22:01:08.143Z,8.96
2024-03-11T22:04:10.019Z,9.02
2024-03-11T22:07:13.331Z,9.04
2024-03-11T22:10:15.600Z,9.04
2024-03-11T22:13:18.823Z,9.03
2024-03-11T22:16:20.291Z,9.02
2024-03-11T22:19:21.739Z,8.98
2024-03-11T22:22:23.159Z,8.89
2024-03-11T22:25:25.337Z,8.87
2024-03-11T22:28:26.865Z,8.87
2024-03-11T22:31:28.306Z,8.89
2024-03-11T22:34:31.281Z,8.92
2024-03-11T22:37:32.722Z,8.86
2024-03-11T22:40:34.678Z,8.75
2024-03-11T22:43:36.820Z,8.76
2024-03-11T22:46:41.079Z,8.72
2024-03-11T22:49:42.641Z,8.65
2024-03-11T22:52:44.253Z,8.61
2024-03-11T22:55:46.046Z,8.50
2024-03-11T22:58:47.912Z,8.42
2024-03-11T23:01:49.817Z,8.40
2024-03-11T23:04:51.750Z,8.38
2024-03-11T23:07:54.393Z,8.33
2024-03-11T23:10:56.902Z,8.38
2024-03-11T23:13:59.216Z,8.38
2024-03-11T23:17:03.139Z,8.40
2024-03-11T23:20:05.006Z,8.36
2024-03-11T23:23:08.991Z,8.32
2024-03-11T23:26:12.107Z,8.29
2024-03-11T23:29:13.680Z,8.31
2024-03-11T23:32:15.353Z,8.33
2024-03-11T23:35:16.844Z,8.08
2024-03-11T23:38:18.283Z,8.01
2024-03-11T23:41:19.810Z,7.97
2024-03-11T23:44:21.362Z,7.94
2024-03-11T23:47:23.594Z,7.87
2024-03-11T23:50:25.614Z,7.78
2024-03-11T23:53:27.987Z,7.79
2024-03-11T23:56:31.323Z,7.76
2024-03-11T23:59:33.502Z,7.76
